Weather at Shkodër Airport [CLOSED]

Public forecast

Using degrees Celsius for public forecast. Weather courtesy of forecast.io.

Closest aviation weather report (METAR) to Shkodër Airport

Closest report is Podgorica Airport / Podgorica Golubovci Airbase, 19.8 nm (36.7 km) NW.

2024/06/16 11:30 (retrieved 22 minutes ago)

LYPG 161130Z 20005KT 140V240 CAVOK 29/15 Q1012 NOSIG

Closest aviation forecast (TAF) to Shkodër Airport

Closest forecast is Podgorica Airport / Podgorica Golubovci Airbase, 19.8 nm (36.7 km) NW.

2024/06/16 06:21 (retrieved 6 hours ago)

TAF LYPG 160500Z 1606/1706 16007KT CAVOK TX32/1613Z TN18/1703Z